sensor_id;sensor_type;location;lat;lon;timestamp;P1;durP1;ratioP1;P2;durP2;ratioP2
11791;SDS011;5953;52.372;9.918;2022-09-17T00:01:21;4.27;;;1.60;;
11791;SDS011;5953;52.372;9.918;2022-09-17T00:03:52;3.20;;;1.50;;
11791;SDS011;5953;52.372;9.918;2022-09-17T00:06:21;3.73;;;1.33;;
11791;SDS011;5953;52.372;9.918;2022-09-17T00:08:50;3.23;;;1.40;;
11791;SDS011;5953;52.372;9.918;2022-09-17T00:11:21;4.80;;;2.03;;
11791;SDS011;5953;52.372;9.918;2022-09-17T00:13:51;3.73;;;1.77;;
11791;SDS011;5953;52.372;9.918;2022-09-17T00:16:21;3.63;;;1.67;;
11791;SDS011;5953;52.372;9.918;2022-09-17T00:18:51;3.40;;;1.50;;
11791;SDS011;5953;52.372;9.918;2022-09-17T00:21:19;3.17;;;1.70;;
11791;SDS011;5953;52.372;9.918;2022-09-17T00:23:47;2.40;;;1.50;;
11791;SDS011;5953;52.372;9.918;2022-09-17T00:26:19;4.47;;;1.50;;
11791;SDS011;5953;52.372;9.918;2022-09-17T00:28:48;4.07;;;1.70;;
11791;SDS011;5953;52.372;9.918;2022-09-17T00:31:17;5.83;;;1.80;;
11791;SDS011;5953;52.372;9.918;2022-09-17T00:33:45;4.20;;;1.70;;
11791;SDS011;5953;52.372;9.918;2022-09-17T00:36:13;5.23;;;1.57;;
11791;SDS011;5953;52.372;9.918;2022-09-17T00:38:41;8.03;;;2.10;;
11791;SDS011;5953;52.372;9.918;2022-09-17T00:41:09;7.97;;;2.13;;
11791;SDS011;5953;52.372;9.918;2022-09-17T00:43:41;5.97;;;1.80;;
11791;SDS011;5953;52.372;9.918;2022-09-17T00:46:15;8.00;;;2.37;;
11791;SDS011;5953;52.372;9.918;2022-09-17T00:48:50;8.10;;;2.40;;
11791;SDS011;5953;52.372;9.918;2022-09-17T00:51:21;9.70;;;2.50;;
11791;SDS011;5953;52.372;9.918;2022-09-17T00:53:53;7.60;;;2.60;;
11791;SDS011;5953;52.372;9.918;2022-09-17T00:56:22;7.87;;;2.67;;
11791;SDS011;5953;52.372;9.918;2022-09-17T00:58:54;5.73;;;2.60;;
11791;SDS011;5953;52.372;9.918;2022-09-17T01:01:22;7.47;;;2.07;;
11791;SDS011;5953;52.372;9.918;2022-09-17T01:03:50;9.53;;;2.47;;
11791;SDS011;5953;52.372;9.918;2022-09-17T01:06:20;7.83;;;2.30;;
11791;SDS011;5953;52.372;9.918;2022-09-17T01:08:59;13.87;;;2.87;;
11791;SDS011;5953;52.372;9.918;2022-09-17T01:11:44;9.63;;;2.33;;
11791;SDS011;5953;52.372;9.918;2022-09-17T01:14:27;15.37;;;3.07;;
11791;SDS011;5953;52.372;9.918;2022-09-17T01:17:07;10.90;;;2.60;;
11791;SDS011;5953;52.372;9.918;2022-09-17T01:19:51;12.93;;;3.40;;
11791;SDS011;5953;52.372;9.918;2022-09-17T01:22:39;11.77;;;3.63;;
11791;SDS011;5953;52.372;9.918;2022-09-17T01:25:20;9.13;;;2.50;;
11791;SDS011;5953;52.372;9.918;2022-09-17T01:30:57;9.17;;;2.63;;
11791;SDS011;5953;52.372;9.918;2022-09-17T01:33:32;11.87;;;3.20;;
11791;SDS011;5953;52.372;9.918;2022-09-17T01:36:11;9.17;;;2.33;;
11791;SDS011;5953;52.372;9.918;2022-09-17T01:38:49;8.47;;;2.43;;
11791;SDS011;5953;52.372;9.918;2022-09-17T01:41:23;7.60;;;2.60;;
11791;SDS011;5953;52.372;9.918;2022-09-17T01:43:58;6.70;;;2.00;;
11791;SDS011;5953;52.372;9.918;2022-09-17T01:46:34;8.07;;;1.97;;
11791;SDS011;5953;52.372;9.918;2022-09-17T01:49:06;10.20;;;3.07;;
11791;SDS011;5953;52.372;9.918;2022-09-17T01:51:37;10.57;;;2.40;;
11791;SDS011;5953;52.372;9.918;2022-09-17T01:54:09;10.43;;;2.43;;
11791;SDS011;5953;52.372;9.918;2022-09-17T01:56:42;7.23;;;2.33;;
11791;SDS011;5953;52.372;9.918;2022-09-17T01:59:15;8.50;;;2.07;;
11791;SDS011;5953;52.372;9.918;2022-09-17T02:01:49;11.17;;;2.40;;
11791;SDS011;5953;52.372;9.918;2022-09-17T02:04:21;10.07;;;2.40;;
11791;SDS011;5953;52.372;9.918;2022-09-17T02:06:54;6.53;;;2.10;;
11791;SDS011;5953;52.372;9.918;2022-09-17T02:09:26;10.83;;;2.53;;
11791;SDS011;5953;52.372;9.918;2022-09-17T02:11:59;10.70;;;3.00;;
11791;SDS011;5953;52.372;9.918;2022-09-17T02:14:30;9.07;;;2.50;;
11791;SDS011;5953;52.372;9.918;2022-09-17T02:17:06;11.23;;;2.33;;
11791;SDS011;5953;52.372;9.918;2022-09-17T02:19:39;10.97;;;3.00;;
11791;SDS011;5953;52.372;9.918;2022-09-17T02:22:11;10.87;;;2.93;;
11791;SDS011;5953;52.372;9.918;2022-09-17T02:24:48;8.70;;;2.10;;
11791;SDS011;5953;52.372;9.918;2022-09-17T02:27:25;13.87;;;2.43;;
11791;SDS011;5953;52.372;9.918;2022-09-17T02:30:03;16.40;;;2.83;;
11791;SDS011;5953;52.372;9.918;2022-09-17T02:32:34;6.53;;;2.27;;
11791;SDS011;5953;52.372;9.918;2022-09-17T02:35:02;10.40;;;2.63;;
11791;SDS011;5953;52.372;9.918;2022-09-17T02:37:31;13.53;;;3.20;;
11791;SDS011;5953;52.372;9.918;2022-09-17T02:39:59;9.60;;;2.30;;
11791;SDS011;5953;52.372;9.918;2022-09-17T02:42:30;9.43;;;2.63;;
11791;SDS011;5953;52.372;9.918;2022-09-17T02:45:04;12.87;;;2.90;;
11791;SDS011;5953;52.372;9.918;2022-09-17T02:47:52;10.60;;;2.67;;
11791;SDS011;5953;52.372;9.918;2022-09-17T02:53:28;9.37;;;2.20;;
11791;SDS011;5953;52.372;9.918;2022-09-17T02:56:07;11.97;;;3.07;;
11791;SDS011;5953;52.372;9.918;2022-09-17T02:58:43;13.37;;;3.13;;
11791;SDS011;5953;52.372;9.918;2022-09-17T03:01:22;10.57;;;2.40;;
11791;SDS011;5953;52.372;9.918;2022-09-17T03:03:56;9.10;;;2.30;;
11791;SDS011;5953;52.372;9.918;2022-09-17T03:06:27;16.27;;;2.90;;
11791;SDS011;5953;52.372;9.918;2022-09-17T03:08:56;12.30;;;2.97;;
11791;SDS011;5953;52.372;9.918;2022-09-17T03:11:23;14.60;;;3.10;;
11791;SDS011;5953;52.372;9.918;2022-09-17T03:13:51;14.97;;;2.97;;
11791;SDS011;5953;52.372;9.918;2022-09-17T03:16:20;14.40;;;2.70;;
11791;SDS011;5953;52.372;9.918;2022-09-17T03:18:47;13.83;;;4.37;;
11791;SDS011;5953;52.372;9.918;2022-09-17T03:21:17;15.37;;;3.27;;
11791;SDS011;5953;52.372;9.918;2022-09-17T03:23:45;10.67;;;2.57;;
11791;SDS011;5953;52.372;9.918;2022-09-17T03:26:13;11.63;;;3.17;;
11791;SDS011;5953;52.372;9.918;2022-09-17T03:28:41;8.60;;;2.73;;
11791;SDS011;5953;52.372;9.918;2022-09-17T03:31:08;12.63;;;2.90;;
11791;SDS011;5953;52.372;9.918;2022-09-17T03:33:36;13.43;;;3.53;;
11791;SDS011;5953;52.372;9.918;2022-09-17T03:36:04;10.20;;;2.80;;
11791;SDS011;5953;52.372;9.918;2022-09-17T03:38:34;12.37;;;2.97;;
11791;SDS011;5953;52.372;9.918;2022-09-17T03:41:04;12.20;;;2.50;;
11791;SDS011;5953;52.372;9.918;2022-09-17T03:43:33;13.80;;;2.73;;
11791;SDS011;5953;52.372;9.918;2022-09-17T03:46:01;11.77;;;1.90;;
11791;SDS011;5953;52.372;9.918;2022-09-17T03:48:29;16.40;;;2.60;;
11791;SDS011;5953;52.372;9.918;2022-09-17T03:50:57;15.73;;;3.63;;
11791;SDS011;5953;52.372;9.918;2022-09-17T03:53:25;13.03;;;2.07;;
11791;SDS011;5953;52.372;9.918;2022-09-17T03:55:56;9.97;;;2.43;;
11791;SDS011;5953;52.372;9.918;2022-09-17T03:58:24;9.47;;;2.17;;
11791;SDS011;5953;52.372;9.918;2022-09-17T04:00:52;13.47;;;2.60;;
11791;SDS011;5953;52.372;9.918;2022-09-17T04:03:22;13.47;;;2.70;;
11791;SDS011;5953;52.372;9.918;2022-09-17T04:05:51;8.50;;;2.03;;
11791;SDS011;5953;52.372;9.918;2022-09-17T04:08:18;13.13;;;3.10;;
11791;SDS011;5953;52.372;9.918;2022-09-17T04:10:47;14.83;;;5.90;;
11791;SDS011;5953;52.372;9.918;2022-09-17T04:13:16;14.57;;;6.50;;
11791;SDS011;5953;52.372;9.918;2022-09-17T04:15:44;15.23;;;5.27;;
11791;SDS011;5953;52.372;9.918;2022-09-17T04:18:13;11.90;;;4.27;;
11791;SDS011;5953;52.372;9.918;2022-09-17T04:20:41;13.40;;;3.70;;
11791;SDS011;5953;52.372;9.918;2022-09-17T04:23:09;12.40;;;3.33;;
11791;SDS011;5953;52.372;9.918;2022-09-17T04:25:38;14.40;;;4.40;;
11791;SDS011;5953;52.372;9.918;2022-09-17T04:28:05;16.37;;;7.33;;
11791;SDS011;5953;52.372;9.918;2022-09-17T04:30:35;20.37;;;8.43;;
11791;SDS011;5953;52.372;9.918;2022-09-17T04:33:02;19.80;;;6.43;;
11791;SDS011;5953;52.372;9.918;2022-09-17T04:35:31;21.67;;;9.00;;
11791;SDS011;5953;52.372;9.918;2022-09-17T04:37:58;25.27;;;11.00;;
11791;SDS011;5953;52.372;9.918;2022-09-17T04:40:26;24.70;;;13.87;;
11791;SDS011;5953;52.372;9.918;2022-09-17T04:42:56;17.50;;;9.23;;
11791;SDS011;5953;52.372;9.918;2022-09-17T04:45:28;11.73;;;6.93;;
11791;SDS011;5953;52.372;9.918;2022-09-17T04:48:00;11.03;;;4.20;;
11791;SDS011;5953;52.372;9.918;2022-09-17T04:50:28;14.17;;;3.77;;
11791;SDS011;5953;52.372;9.918;2022-09-17T04:52:56;19.83;;;3.87;;
11791;SDS011;5953;52.372;9.918;2022-09-17T04:55:24;11.90;;;3.37;;
11791;SDS011;5953;52.372;9.918;2022-09-17T04:57:52;11.00;;;3.67;;
11791;SDS011;5953;52.372;9.918;2022-09-17T05:00:21;14.23;;;3.70;;
11791;SDS011;5953;52.372;9.918;2022-09-17T05:02:50;9.33;;;2.33;;
11791;SDS011;5953;52.372;9.918;2022-09-17T05:05:21;10.83;;;2.43;;
11791;SDS011;5953;52.372;9.918;2022-09-17T05:07:49;12.83;;;2.70;;
11791;SDS011;5953;52.372;9.918;2022-09-17T05:10:18;13.30;;;1.80;;
11791;SDS011;5953;52.372;9.918;2022-09-17T05:12:47;8.87;;;2.10;;
11791;SDS011;5953;52.372;9.918;2022-09-17T05:15:16;10.63;;;2.30;;
11791;SDS011;5953;52.372;9.918;2022-09-17T05:17:44;13.87;;;3.43;;
11791;SDS011;5953;52.372;9.918;2022-09-17T05:20:12;8.27;;;2.00;;
11791;SDS011;5953;52.372;9.918;2022-09-17T05:22:42;13.83;;;2.50;;
11791;SDS011;5953;52.372;9.918;2022-09-17T05:25:12;9.77;;;2.47;;
11791;SDS011;5953;52.372;9.918;2022-09-17T05:27:41;12.13;;;2.40;;
11791;SDS011;5953;52.372;9.918;2022-09-17T05:30:09;8.23;;;2.30;;
11791;SDS011;5953;52.372;9.918;2022-09-17T05:32:38;8.73;;;2.30;;
11791;SDS011;5953;52.372;9.918;2022-09-17T05:35:06;12.50;;;2.53;;
11791;SDS011;5953;52.372;9.918;2022-09-17T05:37:35;8.03;;;2.17;;
11791;SDS011;5953;52.372;9.918;2022-09-17T05:40:05;17.13;;;2.90;;
11791;SDS011;5953;52.372;9.918;2022-09-17T05:42:35;16.83;;;3.83;;
11791;SDS011;5953;52.372;9.918;2022-09-17T05:45:03;14.10;;;2.73;;
11791;SDS011;5953;52.372;9.918;2022-09-17T05:47:32;9.80;;;1.87;;
11791;SDS011;5953;52.372;9.918;2022-09-17T05:50:00;12.70;;;2.23;;
11791;SDS011;5953;52.372;9.918;2022-09-17T05:52:28;10.60;;;2.40;;
11791;SDS011;5953;52.372;9.918;2022-09-17T05:54:56;9.90;;;1.97;;
11791;SDS011;5953;52.372;9.918;2022-09-17T05:57:25;7.00;;;2.17;;
11791;SDS011;5953;52.372;9.918;2022-09-17T05:59:55;13.30;;;2.10;;
11791;SDS011;5953;52.372;9.918;2022-09-17T06:02:23;14.27;;;2.40;;
11791;SDS011;5953;52.372;9.918;2022-09-17T06:04:51;13.07;;;2.17;;
11791;SDS011;5953;52.372;9.918;2022-09-17T06:07:18;13.50;;;2.47;;
11791;SDS011;5953;52.372;9.918;2022-09-17T06:09:46;11.00;;;2.43;;
11791;SDS011;5953;52.372;9.918;2022-09-17T06:12:14;8.50;;;1.83;;
11791;SDS011;5953;52.372;9.918;2022-09-17T06:14:44;12.53;;;1.97;;
11791;SDS011;5953;52.372;9.918;2022-09-17T06:17:12;13.17;;;2.37;;
11791;SDS011;5953;52.372;9.918;2022-09-17T06:19:45;18.13;;;3.03;;
11791;SDS011;5953;52.372;9.918;2022-09-17T06:22:13;11.43;;;2.43;;
11791;SDS011;5953;52.372;9.918;2022-09-17T06:24:40;15.80;;;2.60;;
11791;SDS011;5953;52.372;9.918;2022-09-17T06:27:08;8.20;;;2.23;;
11791;SDS011;5953;52.372;9.918;2022-09-17T06:29:36;15.73;;;2.77;;
11791;SDS011;5953;52.372;9.918;2022-09-17T06:32:06;9.30;;;2.20;;
11791;SDS011;5953;52.372;9.918;2022-09-17T06:34:36;12.13;;;2.50;;
11791;SDS011;5953;52.372;9.918;2022-09-17T06:37:03;14.57;;;2.80;;
11791;SDS011;5953;52.372;9.918;2022-09-17T06:39:31;12.83;;;2.87;;
11791;SDS011;5953;52.372;9.918;2022-09-17T06:41:59;15.77;;;2.50;;
11791;SDS011;5953;52.372;9.918;2022-09-17T06:44:27;7.00;;;2.13;;
11791;SDS011;5953;52.372;9.918;2022-09-17T06:46:55;11.47;;;2.40;;
11791;SDS011;5953;52.372;9.918;2022-09-17T06:49:24;12.40;;;2.40;;
11791;SDS011;5953;52.372;9.918;2022-09-17T06:51:52;13.60;;;2.73;;
11791;SDS011;5953;52.372;9.918;2022-09-17T06:54:20;12.03;;;2.10;;
11791;SDS011;5953;52.372;9.918;2022-09-17T06:56:47;15.83;;;2.77;;
11791;SDS011;5953;52.372;9.918;2022-09-17T06:59:15;12.63;;;2.70;;
11791;SDS011;5953;52.372;9.918;2022-09-17T07:01:43;8.97;;;1.80;;
11791;SDS011;5953;52.372;9.918;2022-09-17T07:04:12;11.33;;;2.03;;
11791;SDS011;5953;52.372;9.918;2022-09-17T07:06:44;10.73;;;2.53;;
11791;SDS011;5953;52.372;9.918;2022-09-17T07:09:11;5.67;;;1.83;;
11791;SDS011;5953;52.372;9.918;2022-09-17T07:11:39;11.50;;;2.20;;
11791;SDS011;5953;52.372;9.918;2022-09-17T07:14:07;16.20;;;2.60;;
11791;SDS011;5953;52.372;9.918;2022-09-17T07:16:35;11.30;;;2.60;;
11791;SDS011;5953;52.372;9.918;2022-09-17T07:19:03;11.90;;;2.07;;
11791;SDS011;5953;52.372;9.918;2022-09-17T07:21:32;7.23;;;1.87;;
11791;SDS011;5953;52.372;9.918;2022-09-17T07:24:01;10.70;;;2.77;;
11791;SDS011;5953;52.372;9.918;2022-09-17T07:26:29;7.87;;;2.53;;
11791;SDS011;5953;52.372;9.918;2022-09-17T07:28:57;9.60;;;2.57;;
11791;SDS011;5953;52.372;9.918;2022-09-17T07:31:25;10.87;;;2.70;;
11791;SDS011;5953;52.372;9.918;2022-09-17T07:33:53;9.33;;;2.30;;
11791;SDS011;5953;52.372;9.918;2022-09-17T07:36:20;14.13;;;2.63;;
11791;SDS011;5953;52.372;9.918;2022-09-17T07:38:48;8.40;;;2.33;;
11791;SDS011;5953;52.372;9.918;2022-09-17T07:41:17;11.47;;;3.07;;
11791;SDS011;5953;52.372;9.918;2022-09-17T07:43:45;10.23;;;3.13;;
11791;SDS011;5953;52.372;9.918;2022-09-17T07:46:13;11.73;;;2.30;;
11791;SDS011;5953;52.372;9.918;2022-09-17T07:48:42;10.20;;;1.83;;
11791;SDS011;5953;52.372;9.918;2022-09-17T07:51:13;7.70;;;1.67;;
11791;SDS011;5953;52.372;9.918;2022-09-17T07:53:42;16.13;;;2.60;;
11791;SDS011;5953;52.372;9.918;2022-09-17T07:56:10;15.30;;;2.47;;
11791;SDS011;5953;52.372;9.918;2022-09-17T07:58:40;14.53;;;2.77;;
11791;SDS011;5953;52.372;9.918;2022-09-17T08:01:08;8.97;;;2.17;;
11791;SDS011;5953;52.372;9.918;2022-09-17T08:03:38;7.47;;;2.63;;
11791;SDS011;5953;52.372;9.918;2022-09-17T08:06:06;16.27;;;2.80;;
11791;SDS011;5953;52.372;9.918;2022-09-17T08:08:35;10.23;;;2.00;;
11791;SDS011;5953;52.372;9.918;2022-09-17T08:11:05;8.63;;;2.20;;
11791;SDS011;5953;52.372;9.918;2022-09-17T08:13:34;11.57;;;3.07;;
11791;SDS011;5953;52.372;9.918;2022-09-17T08:16:04;9.17;;;2.13;;
11791;SDS011;5953;52.372;9.918;2022-09-17T08:18:33;10.73;;;2.30;;
11791;SDS011;5953;52.372;9.918;2022-09-17T08:21:02;12.10;;;2.50;;
11791;SDS011;5953;52.372;9.918;2022-09-17T08:23:33;10.43;;;2.53;;
11791;SDS011;5953;52.372;9.918;2022-09-17T08:26:02;9.53;;;2.07;;
11791;SDS011;5953;52.372;9.918;2022-09-17T08:28:31;11.90;;;2.77;;
11791;SDS011;5953;52.372;9.918;2022-09-17T08:30:59;9.93;;;2.13;;
11791;SDS011;5953;52.372;9.918;2022-09-17T08:33:30;9.37;;;2.37;;
11791;SDS011;5953;52.372;9.918;2022-09-17T08:35:58;8.90;;;2.33;;
11791;SDS011;5953;52.372;9.918;2022-09-17T08:38:26;12.43;;;2.67;;
11791;SDS011;5953;52.372;9.918;2022-09-17T08:41:03;12.47;;;2.50;;
11791;SDS011;5953;52.372;9.918;2022-09-17T08:43:38;12.10;;;3.03;;
11791;SDS011;5953;52.372;9.918;2022-09-17T08:46:10;8.93;;;1.90;;
11791;SDS011;5953;52.372;9.918;2022-09-17T08:48:40;16.83;;;2.53;;
11791;SDS011;5953;52.372;9.918;2022-09-17T08:51:13;13.43;;;2.77;;
11791;SDS011;5953;52.372;9.918;2022-09-17T08:53:55;9.53;;;2.30;;
11791;SDS011;5953;52.372;9.918;2022-09-17T08:56:27;11.23;;;2.10;;
11791;SDS011;5953;52.372;9.918;2022-09-17T08:59:03;8.60;;;2.33;;
11791;SDS011;5953;52.372;9.918;2022-09-17T09:01:48;7.03;;;1.80;;
11791;SDS011;5953;52.372;9.918;2022-09-17T09:07:28;8.37;;;2.33;;
11791;SDS011;5953;52.372;9.918;2022-09-17T09:10:04;11.33;;;1.83;;
11791;SDS011;5953;52.372;9.918;2022-09-17T09:12:38;8.83;;;2.00;;
11791;SDS011;5953;52.372;9.918;2022-09-17T09:15:07;8.93;;;2.03;;
11791;SDS011;5953;52.372;9.918;2022-09-17T09:17:48;9.07;;;2.47;;
11791;SDS011;5953;52.372;9.918;2022-09-17T09:20:20;7.70;;;2.50;;
11791;SDS011;5953;52.372;9.918;2022-09-17T09:22:55;15.10;;;2.93;;
11791;SDS011;5953;52.372;9.918;2022-09-17T09:25:28;9.67;;;1.90;;
11791;SDS011;5953;52.372;9.918;2022-09-17T09:28:01;12.53;;;2.57;;
11791;SDS011;5953;52.372;9.918;2022-09-17T09:30:40;10.20;;;1.97;;
11791;SDS011;5953;52.372;9.918;2022-09-17T09:33:18;7.10;;;1.87;;
11791;SDS011;5953;52.372;9.918;2022-09-17T09:35:54;10.63;;;2.17;;
11791;SDS011;5953;52.372;9.918;2022-09-17T09:38:24;16.57;;;2.20;;
11791;SDS011;5953;52.372;9.918;2022-09-17T09:40:59;11.33;;;2.63;;
11791;SDS011;5953;52.372;9.918;2022-09-17T09:43:36;6.37;;;1.80;;
11791;SDS011;5953;52.372;9.918;2022-09-17T09:46:33;8.67;;;2.17;;
11791;SDS011;5953;52.372;9.918;2022-09-17T09:49:17;8.07;;;1.73;;
11791;SDS011;5953;52.372;9.918;2022-09-17T09:51:57;9.40;;;2.07;;
11791;SDS011;5953;52.372;9.918;2022-09-17T09:54:40;8.33;;;2.00;;
11791;SDS011;5953;52.372;9.918;2022-09-17T09:57:17;7.57;;;1.80;;
11791;SDS011;5953;52.372;9.918;2022-09-17T09:59:57;9.43;;;1.97;;
11791;SDS011;5953;52.372;9.918;2022-09-17T10:02:48;10.53;;;1.97;;
11791;SDS011;5953;52.372;9.918;2022-09-17T10:05:20;8.10;;;1.90;;
11791;SDS011;5953;52.372;9.918;2022-09-17T10:07:49;7.93;;;2.03;;
11791;SDS011;5953;52.372;9.918;2022-09-17T10:10:17;10.57;;;2.00;;
11791;SDS011;5953;52.372;9.918;2022-09-17T10:12:46;11.87;;;2.50;;
11791;SDS011;5953;52.372;9.918;2022-09-17T10:15:22;6.73;;;1.77;;
11791;SDS011;5953;52.372;9.918;2022-09-17T10:18:05;10.33;;;2.57;;
11791;SDS011;5953;52.372;9.918;2022-09-17T10:20:51;10.43;;;2.57;;
11791;SDS011;5953;52.372;9.918;2022-09-17T10:23:23;7.77;;;1.87;;
11791;SDS011;5953;52.372;9.918;2022-09-17T10:25:52;8.23;;;2.00;;
11791;SDS011;5953;52.372;9.918;2022-09-17T10:28:29;7.87;;;1.93;;
11791;SDS011;5953;52.372;9.918;2022-09-17T10:31:00;7.23;;;2.13;;
11791;SDS011;5953;52.372;9.918;2022-09-17T10:33:35;9.90;;;2.17;;
11791;SDS011;5953;52.372;9.918;2022-09-17T10:36:06;8.17;;;2.13;;
11791;SDS011;5953;52.372;9.918;2022-09-17T10:38:37;7.47;;;2.00;;
11791;SDS011;5953;52.372;9.918;2022-09-17T10:41:13;7.73;;;1.60;;
11791;SDS011;5953;52.372;9.918;2022-09-17T10:43:42;9.60;;;2.00;;
11791;SDS011;5953;52.372;9.918;2022-09-17T10:46:20;7.93;;;2.00;;
11791;SDS011;5953;52.372;9.918;2022-09-17T10:48:56;9.07;;;2.40;;
11791;SDS011;5953;52.372;9.918;2022-09-17T10:51:34;7.90;;;1.87;;
11791;SDS011;5953;52.372;9.918;2022-09-17T10:54:16;6.00;;;1.83;;
11791;SDS011;5953;52.372;9.918;2022-09-17T10:56:56;7.80;;;1.87;;
11791;SDS011;5953;52.372;9.918;2022-09-17T10:59:36;7.83;;;1.90;;
11791;SDS011;5953;52.372;9.918;2022-09-17T11:05:35;5.87;;;1.80;;
11791;SDS011;5953;52.372;9.918;2022-09-17T11:08:11;9.33;;;1.90;;
11791;SDS011;5953;52.372;9.918;2022-09-17T11:10:49;8.67;;;1.70;;
11791;SDS011;5953;52.372;9.918;2022-09-17T11:13:26;9.40;;;2.00;;
11791;SDS011;5953;52.372;9.918;2022-09-17T11:16:07;5.67;;;1.47;;
11791;SDS011;5953;52.372;9.918;2022-09-17T11:18:41;8.10;;;1.83;;
11791;SDS011;5953;52.372;9.918;2022-09-17T11:24:26;7.47;;;1.60;;
11791;SDS011;5953;52.372;9.918;2022-09-17T11:27:19;15.67;;;2.30;;
11791;SDS011;5953;52.372;9.918;2022-09-17T11:30:16;7.27;;;1.90;;
11791;SDS011;5953;52.372;9.918;2022-09-17T11:35:54;7.70;;;2.07;;
11791;SDS011;5953;52.372;9.918;2022-09-17T11:38:26;11.33;;;2.27;;
11791;SDS011;5953;52.372;9.918;2022-09-17T11:40:58;6.80;;;2.03;;
11791;SDS011;5953;52.372;9.918;2022-09-17T11:43:30;6.83;;;1.73;;
11791;SDS011;5953;52.372;9.918;2022-09-17T11:46:01;7.83;;;1.93;;
11791;SDS011;5953;52.372;9.918;2022-09-17T11:48:36;9.17;;;2.10;;
11791;SDS011;5953;52.372;9.918;2022-09-17T11:51:13;8.43;;;2.07;;
11791;SDS011;5953;52.372;9.918;2022-09-17T11:53:49;8.67;;;1.60;;
11791;SDS011;5953;52.372;9.918;2022-09-17T11:56:20;5.67;;;1.53;;
11791;SDS011;5953;52.372;9.918;2022-09-17T11:58:54;3.60;;;1.67;;
11791;SDS011;5953;52.372;9.918;2022-09-17T12:01:27;5.83;;;2.23;;
11791;SDS011;5953;52.372;9.918;2022-09-17T12:04:04;10.23;;;2.40;;
11791;SDS011;5953;52.372;9.918;2022-09-17T12:06:47;9.00;;;2.10;;
11791;SDS011;5953;52.372;9.918;2022-09-17T12:09:20;9.20;;;4.03;;
11791;SDS011;5953;52.372;9.918;2022-09-17T12:11:52;5.60;;;1.57;;
11791;SDS011;5953;52.372;9.918;2022-09-17T12:14:28;4.27;;;1.60;;
11791;SDS011;5953;52.372;9.918;2022-09-17T12:17:04;6.83;;;1.30;;
11791;SDS011;5953;52.372;9.918;2022-09-17T12:19:34;5.43;;;1.37;;
11791;SDS011;5953;52.372;9.918;2022-09-17T12:22:06;3.77;;;1.40;;
11791;SDS011;5953;52.372;9.918;2022-09-17T12:24:37;2.23;;;1.30;;
11791;SDS011;5953;52.372;9.918;2022-09-17T12:27:08;3.73;;;1.23;;
11791;SDS011;5953;52.372;9.918;2022-09-17T12:30:01;3.67;;;1.13;;
11791;SDS011;5953;52.372;9.918;2022-09-17T12:32:46;6.30;;;1.50;;
11791;SDS011;5953;52.372;9.918;2022-09-17T12:35:30;1.73;;;0.60;;
11791;SDS011;5953;52.372;9.918;2022-09-17T12:38:35;3.83;;;1.17;;
11791;SDS011;5953;52.372;9.918;2022-09-17T12:41:31;6.60;;;1.53;;
11791;SDS011;5953;52.372;9.918;2022-09-17T12:44:22;4.63;;;1.17;;
11791;SDS011;5953;52.372;9.918;2022-09-17T12:47:17;4.43;;;1.20;;
11791;SDS011;5953;52.372;9.918;2022-09-17T12:50:01;6.30;;;1.30;;
11791;SDS011;5953;52.372;9.918;2022-09-17T12:52:43;5.00;;;1.37;;
11791;SDS011;5953;52.372;9.918;2022-09-17T12:55:26;5.97;;;1.53;;
11791;SDS011;5953;52.372;9.918;2022-09-17T12:58:03;4.40;;;1.53;;
11791;SDS011;5953;52.372;9.918;2022-09-17T13:00:39;7.97;;;2.00;;
11791;SDS011;5953;52.372;9.918;2022-09-17T13:03:14;10.90;;;2.40;;
11791;SDS011;5953;52.372;9.918;2022-09-17T13:05:52;10.57;;;2.17;;
11791;SDS011;5953;52.372;9.918;2022-09-17T13:08:55;3.53;;;1.70;;
11791;SDS011;5953;52.372;9.918;2022-09-17T13:11:39;4.30;;;1.50;;
11791;SDS011;5953;52.372;9.918;2022-09-17T13:14:18;7.00;;;2.07;;
11791;SDS011;5953;52.372;9.918;2022-09-17T13:16:54;9.17;;;2.23;;
11791;SDS011;5953;52.372;9.918;2022-09-17T13:19:32;4.03;;;1.50;;
11791;SDS011;5953;52.372;9.918;2022-09-17T13:22:05;5.50;;;1.60;;
11791;SDS011;5953;52.372;9.918;2022-09-17T13:24:35;3.07;;;1.17;;
11791;SDS011;5953;52.372;9.918;2022-09-17T13:27:03;5.70;;;1.40;;
11791;SDS011;5953;52.372;9.918;2022-09-17T13:32:40;3.93;;;1.87;;
11791;SDS011;5953;52.372;9.918;2022-09-17T13:38:19;6.00;;;1.53;;
11791;SDS011;5953;52.372;9.918;2022-09-17T13:40:50;7.27;;;1.83;;
11791;SDS011;5953;52.372;9.918;2022-09-17T13:43:20;4.20;;;1.20;;
11791;SDS011;5953;52.372;9.918;2022-09-17T13:46:07;5.90;;;1.60;;
11791;SDS011;5953;52.372;9.918;2022-09-17T13:48:45;6.63;;;1.70;;
11791;SDS011;5953;52.372;9.918;2022-09-17T13:54:36;5.57;;;1.20;;
11791;SDS011;5953;52.372;9.918;2022-09-17T13:57:06;2.93;;;1.30;;
11791;SDS011;5953;52.372;9.918;2022-09-17T13:59:50;4.50;;;1.30;;
11791;SDS011;5953;52.372;9.918;2022-09-17T14:08:12;5.53;;;1.20;;
11791;SDS011;5953;52.372;9.918;2022-09-17T14:10:55;4.40;;;1.30;;
11791;SDS011;5953;52.372;9.918;2022-09-17T14:13:26;6.60;;;1.57;;
11791;SDS011;5953;52.372;9.918;2022-09-17T14:16:30;5.27;;;1.10;;
11791;SDS011;5953;52.372;9.918;2022-09-17T14:19:04;3.27;;;1.00;;
11791;SDS011;5953;52.372;9.918;2022-09-17T14:21:55;2.93;;;1.20;;
11791;SDS011;5953;52.372;9.918;2022-09-17T14:24:27;5.67;;;1.20;;
11791;SDS011;5953;52.372;9.918;2022-09-17T14:27:13;4.37;;;1.40;;
11791;SDS011;5953;52.372;9.918;2022-09-17T14:29:58;3.60;;;1.00;;
11791;SDS011;5953;52.372;9.918;2022-09-17T14:32:30;3.80;;;1.20;;
11791;SDS011;5953;52.372;9.918;2022-09-17T14:35:12;3.83;;;1.40;;
11791;SDS011;5953;52.372;9.918;2022-09-17T14:37:47;2.70;;;0.97;;
11791;SDS011;5953;52.372;9.918;2022-09-17T14:40:18;3.07;;;1.03;;
11791;SDS011;5953;52.372;9.918;2022-09-17T14:42:51;1.80;;;0.90;;
11791;SDS011;5953;52.372;9.918;2022-09-17T14:45:22;5.57;;;1.23;;
11791;SDS011;5953;52.372;9.918;2022-09-17T14:51:00;4.30;;;1.10;;
11791;SDS011;5953;52.372;9.918;2022-09-17T14:53:42;3.13;;;1.00;;
11791;SDS011;5953;52.372;9.918;2022-09-17T14:56:11;8.23;;;1.53;;
11791;SDS011;5953;52.372;9.918;2022-09-17T14:58:44;3.40;;;1.10;;
11791;SDS011;5953;52.372;9.918;2022-09-17T15:01:19;4.53;;;1.23;;
11791;SDS011;5953;52.372;9.918;2022-09-17T15:06:46;4.13;;;1.20;;
11791;SDS011;5953;52.372;9.918;2022-09-17T15:09:14;7.57;;;1.50;;
11791;SDS011;5953;52.372;9.918;2022-09-17T15:11:43;7.27;;;1.90;;
11791;SDS011;5953;52.372;9.918;2022-09-17T15:14:16;5.10;;;1.27;;
11791;SDS011;5953;52.372;9.918;2022-09-17T15:16:46;3.90;;;1.37;;
11791;SDS011;5953;52.372;9.918;2022-09-17T15:19:18;7.37;;;1.50;;
11791;SDS011;5953;52.372;9.918;2022-09-17T15:21:50;5.70;;;1.33;;
11791;SDS011;5953;52.372;9.918;2022-09-17T15:24:31;6.87;;;1.60;;
11791;SDS011;5953;52.372;9.918;2022-09-17T15:27:05;5.33;;;1.20;;
11791;SDS011;5953;52.372;9.918;2022-09-17T15:29:41;2.53;;;1.23;;
11791;SDS011;5953;52.372;9.918;2022-09-17T15:32:11;8.00;;;1.50;;
11791;SDS011;5953;52.372;9.918;2022-09-17T15:34:40;5.97;;;1.20;;
11791;SDS011;5953;52.372;9.918;2022-09-17T15:37:15;11.63;;;3.50;;
11791;SDS011;5953;52.372;9.918;2022-09-17T15:39:48;9.17;;;2.60;;
11791;SDS011;5953;52.372;9.918;2022-09-17T15:42:18;7.37;;;1.77;;
11791;SDS011;5953;52.372;9.918;2022-09-17T15:44:49;9.17;;;2.17;;
11791;SDS011;5953;52.372;9.918;2022-09-17T15:50:18;6.07;;;1.87;;
11791;SDS011;5953;52.372;9.918;2022-09-17T15:52:47;8.30;;;1.70;;
11791;SDS011;5953;52.372;9.918;2022-09-17T15:55:28;5.60;;;1.57;;
11791;SDS011;5953;52.372;9.918;2022-09-17T15:57:58;7.93;;;2.23;;
11791;SDS011;5953;52.372;9.918;2022-09-17T16:00:28;6.67;;;1.63;;
11791;SDS011;5953;52.372;9.918;2022-09-17T16:02:57;7.80;;;1.70;;
11791;SDS011;5953;52.372;9.918;2022-09-17T16:08:22;6.87;;;1.83;;
11791;SDS011;5953;52.372;9.918;2022-09-17T16:10:51;5.90;;;1.70;;
11791;SDS011;5953;52.372;9.918;2022-09-17T16:13:18;4.60;;;1.20;;
11791;SDS011;5953;52.372;9.918;2022-09-17T16:15:54;6.43;;;1.57;;